Terminal Aerodrome Forecast
Issued by NWS

Home | Current Version | Previous Version | Text Only | Print | Product List | Glossary On
Versions: 1 2 3 4 5 6 7 8 9 10 11 12 13 14 15 16 17 18 19 20 21 22 23 24 25 26 27 28 29 30
009
FTUS43 KDVN 190520
TAFCID
TAF
KCID 190520Z 1906/2006 00000KT 5SM BR SKC
      TEMPO 1906/1907 1SM BR SCT002
     FM190700 11002KT 2SM BR SCT002
      TEMPO 1907/1911 1/2SM FG VV002
     FM191100 11002KT 1/4SM FG VV001
     FM191530 14007KT P6SM SKC=

USA.gov is the U.S. government's official web portal to all federal, state and local government web resources and services.